Maloy, Iowa
Current Conditions -  °F | °C
As of 11:15 AM on Thursday 27 Nov 2014 (Local Time) from KCSQ Reporting Station
Overcast Overcast  
Wind Chill:   Ceiling: 4300
Heat Index: 10°   Visibility: 10mi
Dew Point:   Wind: 5mph
Humidity: 73%   Direction: 310°NW
Pressure: 30.52"   Gusts: NA
Location:  40.6485°N, 94.5286°W
Report Text: KCSQ 271715Z AUTO 31004KT 10SM OVC043 M12/M16 A3052 RMK AO2
Loading
Personal Weather Stations






























Interactive Weather Map New forecast layout! Learn more

10-Day Weather Forecast

Advertisements
Track Severe Weather on mobile